createdAt,value
2022-10-06T00:01:42.412Z,13.37
2022-10-06T00:03:58.306Z,13.29
2022-10-06T00:06:18.961Z,13.25
2022-10-06T00:08:39.527Z,13.18
2022-10-06T00:11:00.214Z,13.21
2022-10-06T00:13:18.716Z,13.12
2022-10-06T00:15:36.850Z,13.47
2022-10-06T00:17:54.919Z,13.52
2022-10-06T00:20:15.250Z,13.56
2022-10-06T00:22:36.071Z,13.44
2022-10-06T00:24:54.110Z,13.32
2022-10-06T00:27:14.650Z,13.41
2022-10-06T00:29:31.253Z,13.43
2022-10-06T00:31:51.896Z,13.38
2022-10-06T00:34:12.550Z,13.38
2022-10-06T00:36:27.482Z,13.51
2022-10-06T00:38:48.197Z,13.55
2022-10-06T00:41:06.291Z,13.76
2022-10-06T00:43:22.794Z,14.02
2022-10-06T00:45:43.446Z,14.20
2022-10-06T00:48:01.580Z,14.24
2022-10-06T00:50:16.967Z,14.29
2022-10-06T00:52:37.677Z,14.42
2022-10-06T00:54:52.304Z,14.49
2022-10-06T00:57:10.278Z,14.49
2022-10-06T00:59:28.066Z,14.65
2022-10-06T01:01:46.864Z,14.81
2022-10-06T01:04:02.167Z,14.81
2022-10-06T01:06:20.162Z,14.75
2022-10-06T01:08:35.638Z,14.64
2022-10-06T01:10:53.701Z,14.60
2022-10-06T01:13:14.451Z,14.65
2022-10-06T01:15:32.699Z,14.87
2022-10-06T01:17:50.558Z,14.95
2022-10-06T01:20:06.158Z,15.01
2022-10-06T01:22:24.309Z,14.98
2022-10-06T01:24:42.450Z,14.88
2022-10-06T01:27:00.500Z,14.74
2022-10-06T01:29:15.137Z,14.62
2022-10-06T01:31:35.712Z,14.74
2022-10-06T01:33:53.812Z,14.67
2022-10-06T01:36:08.369Z,14.69
2022-10-06T01:38:26.849Z,14.64
2022-10-06T01:40:44.552Z,14.46
2022-10-06T01:43:05.182Z,14.27
2022-10-06T01:45:23.265Z,14.17
2022-10-06T01:47:41.377Z,14.07
2022-10-06T01:49:59.453Z,14.06
2022-10-06T01:52:17.383Z,14.01
2022-10-06T01:54:35.617Z,14.06
2022-10-06T01:56:53.771Z,14.12
2022-10-06T01:59:14.367Z,14.17
2022-10-06T02:01:36.201Z,14.20
2022-10-06T02:03:56.559Z,14.12
2022-10-06T02:06:17.162Z,14.25
2022-10-06T02:08:33.626Z,14.20
2022-10-06T02:10:49.318Z,14.07
2022-10-06T02:13:09.487Z,14.01
2022-10-06T02:15:30.610Z,14.09
2022-10-06T02:17:48.529Z,14.10
2022-10-06T02:20:09.093Z,14.19
2022-10-06T02:22:29.915Z,14.19
2022-10-06T02:24:50.388Z,14.17
2022-10-06T02:27:08.477Z,14.19
2022-10-06T02:29:26.580Z,14.21
2022-10-06T02:31:47.099Z,14.27
2022-10-06T02:34:01.709Z,14.37
2022-10-06T02:36:21.926Z,14.50
2022-10-06T02:38:40.474Z,14.61
2022-10-06T02:41:01.025Z,14.68
2022-10-06T02:43:21.637Z,14.75
2022-10-06T02:45:41.997Z,14.74
2022-10-06T02:48:00.169Z,14.71
2022-10-06T02:50:20.888Z,14.72
2022-10-06T02:52:41.105Z,14.72
2022-10-06T02:55:00.123Z,14.74
2022-10-06T02:57:20.915Z,14.75
2022-10-06T02:59:37.557Z,14.80
2022-10-06T03:01:53.550Z,14.84
2022-10-06T03:04:11.305Z,14.86
2022-10-06T03:06:29.053Z,14.83
2022-10-06T03:08:47.229Z,14.88
2022-10-06T03:11:05.332Z,14.94
2022-10-06T03:13:21.833Z,14.94
2022-10-06T03:15:42.551Z,14.87
2022-10-06T03:17:59.004Z,14.80
2022-10-06T03:20:19.645Z,14.78
2022-10-06T03:22:40.424Z,14.71
2022-10-06T03:25:00.876Z,14.67
2022-10-06T03:27:19.093Z,14.65
2022-10-06T03:29:39.564Z,14.80
2022-10-06T03:32:00.157Z,14.80
2022-10-06T03:34:20.786Z,14.88
2022-10-06T03:36:38.818Z,15.03
2022-10-06T03:38:57.077Z,15.13
2022-10-06T03:41:17.741Z,15.19
2022-10-06T03:43:38.128Z,15.26
2022-10-06T03:45:52.711Z,15.36
2022-10-06T03:48:11.367Z,15.43
2022-10-06T03:50:27.575Z,15.45
2022-10-06T03:52:47.982Z,15.46
2022-10-06T03:55:08.892Z,15.42
2022-10-06T03:57:27.047Z,15.38
2022-10-06T03:59:48.009Z,15.48
2022-10-06T04:02:08.347Z,15.48
2022-10-06T04:04:29.175Z,15.48
2022-10-06T04:06:49.907Z,15.51
2022-10-06T04:09:12.571Z,15.42
2022-10-06T04:11:26.186Z,15.35
2022-10-06T04:13:46.390Z,15.28
2022-10-06T04:16:04.863Z,15.30
2022-10-06T04:18:32.199Z,15.24
2022-10-06T04:20:49.730Z,15.11
2022-10-06T04:23:09.933Z,14.99
2022-10-06T04:25:28.101Z,14.90
2022-10-06T04:27:43.798Z,14.84
2022-10-06T04:30:05.165Z,14.90
2022-10-06T04:32:25.737Z,15.02
2022-10-06T04:34:43.807Z,15.05
2022-10-06T04:37:01.646Z,15.01
2022-10-06T04:39:22.301Z,14.88
2022-10-06T04:41:40.095Z,14.90
2022-10-06T04:43:58.583Z,14.93
2022-10-06T04:46:41.378Z,14.81
2022-10-06T04:47:19.737Z,14.78
2022-10-06T04:49:39.610Z,14.81
2022-10-06T04:51:58.366Z,14.84
2022-10-06T04:54:18.235Z,14.88
2022-10-06T04:56:38.857Z,15.01
2022-10-06T04:58:57.058Z,15.02
2022-10-06T05:01:15.110Z,14.99
2022-10-06T05:03:35.580Z,14.98
2022-10-06T05:05:56.226Z,14.88
2022-10-06T05:08:17.028Z,14.72
2022-10-06T05:10:34.667Z,14.62
2022-10-06T05:12:53.016Z,14.52
2022-10-06T05:15:10.986Z,14.47
2022-10-06T05:17:28.957Z,14.56
2022-10-06T05:19:47.044Z,14.62
2022-10-06T05:22:08.188Z,14.57
2022-10-06T05:24:26.081Z,14.60
2022-10-06T05:26:44.125Z,14.65
2022-10-06T05:29:04.414Z,14.69
2022-10-06T05:31:21.266Z,14.64
2022-10-06T05:33:39.320Z,14.54
2022-10-06T05:35:59.959Z,14.34
2022-10-06T05:38:18.954Z,14.17
2022-10-06T05:40:37.055Z,14.07
2022-10-06T05:42:58.589Z,13.98
2022-10-06T05:45:19.377Z,14.12
2022-10-06T05:47:39.998Z,14.17
2022-10-06T05:50:00.608Z,14.16
2022-10-06T05:52:21.896Z,14.06
2022-10-06T05:54:42.771Z,13.94
2022-10-06T05:57:03.465Z,13.99
2022-10-06T05:59:19.986Z,14.01
2022-10-06T06:01:38.291Z,14.09
2022-10-06T06:03:56.044Z,13.98
2022-10-06T06:06:16.831Z,13.94
2022-10-06T06:08:37.419Z,13.99
2022-10-06T06:10:56.412Z,14.06
2022-10-06T06:13:14.592Z,14.10
2022-10-06T06:15:31.171Z,14.06
2022-10-06T06:17:49.230Z,14.06
2022-10-06T06:20:07.352Z,14.07
2022-10-06T06:22:25.357Z,14.09
2022-10-06T06:24:45.594Z,14.12
2022-10-06T06:27:07.115Z,14.16
2022-10-06T06:29:27.764Z,14.29
2022-10-06T06:31:45.876Z,14.39
2022-10-06T06:34:06.464Z,14.39
2022-10-06T06:36:24.440Z,14.50
2022-10-06T06:38:45.000Z,14.44
2022-10-06T06:41:03.127Z,14.32
2022-10-06T06:43:21.232Z,14.16
2022-10-06T06:45:39.396Z,14.09
2022-10-06T06:47:57.374Z,14.06
2022-10-06T06:50:13.909Z,14.07
2022-10-06T06:52:32.023Z,14.09
2022-10-06T06:54:50.112Z,14.10
2022-10-06T06:57:08.287Z,14.21
2022-10-06T06:59:28.817Z,14.24
2022-10-06T07:01:47.114Z,14.19
2022-10-06T07:04:07.740Z,14.20
2022-10-06T07:06:28.528Z,14.32
2022-10-06T07:08:48.782Z,14.44
2022-10-06T07:11:09.406Z,14.49
2022-10-06T07:13:29.935Z,14.56
2022-10-06T07:15:50.609Z,14.56
2022-10-06T07:18:08.705Z,14.61
2022-10-06T07:20:24.491Z,14.68
2022-10-06T07:22:44.842Z,14.74
2022-10-06T07:25:05.501Z,14.80
2022-10-06T07:27:26.636Z,14.88
2022-10-06T07:29:46.667Z,14.98
2022-10-06T07:32:05.157Z,14.94
2022-10-06T07:34:19.795Z,14.99
2022-10-06T07:36:40.407Z,14.95
2022-10-06T07:39:01.012Z,14.84
2022-10-06T07:41:21.574Z,14.75
2022-10-06T07:43:39.718Z,14.74
2022-10-06T07:46:00.256Z,14.75
2022-10-06T07:48:20.914Z,14.78
2022-10-06T07:50:38.957Z,14.87
2022-10-06T07:52:57.039Z,14.90
2022-10-06T08:01:40.678Z,15.12
2022-10-06T08:09:49.623Z,15.19
2022-10-06T08:11:30.349Z,15.26
2022-10-06T08:13:45.835Z,15.33
2022-10-06T08:16:06.588Z,15.42
2022-10-06T08:18:45.549Z,15.63
2022-10-06T08:19:25.623Z,15.67
2022-10-06T08:21:42.726Z,15.89
2022-10-06T08:24:01.096Z,15.94
2022-10-06T08:26:18.867Z,15.78
2022-10-06T08:28:36.986Z,15.88
2022-10-06T08:30:55.035Z,15.97
2022-10-06T08:33:11.595Z,16.03
2022-10-06T08:35:32.194Z,16.25
2022-10-06T08:37:52.807Z,16.33
2022-10-06T08:40:10.867Z,16.42
2022-10-06T08:42:26.281Z,16.42
2022-10-06T08:44:42.051Z,16.33
2022-10-06T08:47:02.648Z,16.31
2022-10-06T08:49:20.684Z,16.14
2022-10-06T08:51:38.729Z,16.30
2022-10-06T08:53:54.432Z,16.35
2022-10-06T08:56:08.801Z,16.53
2022-10-06T08:58:27.020Z,16.71
2022-10-06T09:00:47.661Z,16.78
2022-10-06T09:03:05.755Z,16.65
2022-10-06T09:05:26.342Z,16.63
2022-10-06T09:07:46.824Z,16.33
2022-10-06T09:10:05.170Z,16.34
2022-10-06T09:12:22.557Z,16.23
2022-10-06T09:14:40.540Z,16.12
2022-10-06T09:16:58.640Z,16.25
2022-10-06T09:19:11.007Z,16.41
2022-10-06T09:21:26.678Z,16.60
2022-10-06T09:23:42.674Z,16.83
2022-10-06T09:26:01.110Z,16.96
2022-10-06T09:28:19.146Z,17.06
2022-10-06T09:30:39.761Z,17.03
2022-10-06T09:32:57.682Z,17.28
2022-10-06T09:35:15.939Z,17.40
2022-10-06T09:37:33.791Z,17.36
2022-10-06T09:39:52.041Z,17.47
2022-10-06T09:42:07.753Z,17.41
2022-10-06T09:44:23.308Z,17.48
2022-10-06T09:46:41.455Z,17.57
2022-10-06T09:48:59.373Z,17.63
2022-10-06T09:51:20.694Z,17.57
2022-10-06T09:53:39.062Z,17.76
2022-10-06T09:55:52.407Z,17.55
2022-10-06T09:58:06.716Z,17.71
2022-10-06T10:00:27.340Z,18.10
2022-10-06T10:02:45.148Z,18.39
2022-10-06T10:05:03.173Z,18.29
2022-10-06T10:07:23.916Z,18.34
2022-10-06T10:09:44.538Z,18.37
2022-10-06T10:12:05.071Z,18.50
2022-10-06T10:14:24.045Z,18.61
2022-10-06T10:16:46.836Z,18.54
2022-10-06T10:19:05.927Z,18.65
2022-10-06T10:21:34.883Z,18.72
2022-10-06T10:23:56.471Z,18.79
2022-10-06T10:26:20.214Z,18.79
2022-10-06T10:28:33.862Z,19.01
2022-10-06T10:30:52.638Z,19.21
2022-10-06T10:33:13.802Z,19.25
2022-10-06T10:35:33.784Z,19.11
2022-10-06T10:37:51.857Z,19.05
2022-10-06T10:40:12.471Z,19.18
2022-10-06T10:42:33.042Z,19.42
2022-10-06T10:44:53.627Z,19.80
2022-10-06T10:47:10.166Z,19.58
2022-10-06T10:49:30.863Z,19.10
2022-10-06T10:51:51.068Z,18.68
2022-10-06T10:54:09.476Z,18.18
2022-10-06T10:57:03.197Z,17.50
2022-10-06T10:58:45.744Z,17.55
2022-10-06T11:01:08.974Z,17.79
2022-10-06T11:03:26.906Z,18.09
2022-10-06T11:05:45.013Z,18.12
2022-10-06T11:07:59.600Z,17.92
2022-10-06T11:10:20.208Z,17.54
2022-10-06T11:12:35.651Z,17.44
2022-10-06T11:14:54.144Z,17.62
2022-10-06T11:17:11.992Z,17.87
2022-10-06T11:19:27.449Z,17.89
2022-10-06T11:21:42.309Z,17.73
2022-10-06T11:24:00.801Z,17.57
2022-10-06T11:26:16.133Z,17.30
2022-10-06T11:28:34.150Z,16.98
2022-10-06T11:30:54.652Z,17.07
2022-10-06T11:33:12.727Z,17.08
2022-10-06T11:35:33.680Z,17.30
2022-10-06T11:37:48.223Z,17.38
2022-10-06T11:40:06.310Z,17.33
2022-10-06T11:42:24.415Z,17.23
2022-10-06T11:44:39.965Z,17.13
2022-10-06T11:46:58.215Z,17.03
2022-10-06T11:49:16.223Z,17.17
2022-10-06T11:51:30.959Z,17.38
2022-10-06T11:53:46.268Z,17.40
2022-10-06T11:56:04.657Z,17.55
2022-10-06T12:00:43.550Z,17.82
2022-10-06T12:03:01.661Z,17.67
2022-10-06T12:06:20.558Z,17.62
2022-10-06T12:08:36.205Z,17.82
2022-10-06T12:10:54.449Z,18.06
2022-10-06T12:13:21.278Z,18.37
2022-10-06T12:15:59.745Z,18.40
2022-10-06T12:17:30.498Z,18.61
2022-10-06T12:19:46.168Z,18.59
2022-10-06T12:22:04.074Z,18.49
2022-10-06T12:24:18.591Z,18.13
2022-10-06T12:26:32.313Z,18.06
2022-10-06T12:28:50.429Z,18.15
2022-10-06T12:31:06.090Z,18.17
2022-10-06T12:33:24.049Z,18.12
2022-10-06T12:35:42.288Z,18.17
2022-10-06T12:38:02.783Z,18.07
2022-10-06T12:40:17.310Z,17.88
2022-10-06T12:42:32.905Z,17.87
2022-10-06T12:44:51.159Z,17.79
2022-10-06T12:47:06.599Z,17.84
2022-10-06T12:49:24.695Z,17.87
2022-10-06T12:51:42.771Z,17.92
2022-10-06T12:54:00.853Z,17.85
2022-10-06T12:56:18.960Z,17.76
2022-10-06T12:58:37.418Z,17.76
2022-10-06T13:00:55.131Z,17.79
2022-10-06T13:03:10.903Z,17.95
2022-10-06T13:05:28.752Z,17.94
2022-10-06T13:07:47.231Z,17.87
2022-10-06T13:10:05.129Z,17.67
2022-10-06T13:12:18.551Z,17.53
2022-10-06T13:14:34.293Z,17.46
2022-10-06T13:16:52.332Z,17.47
2022-10-06T13:19:13.023Z,17.59
2022-10-06T13:21:30.072Z,17.69
2022-10-06T13:23:41.505Z,17.79
2022-10-06T13:25:53.517Z,17.81
2022-10-06T13:28:05.650Z,17.73
2022-10-06T13:30:17.725Z,17.78
2022-10-06T13:32:30.768Z,17.82
2022-10-06T13:34:43.423Z,17.82
2022-10-06T13:36:55.922Z,17.82
2022-10-06T13:39:09.498Z,17.82
2022-10-06T13:41:22.583Z,17.88
2022-10-06T13:43:39.744Z,17.78
2022-10-06T13:45:49.542Z,17.74
2022-10-06T13:48:01.356Z,17.70
2022-10-06T13:50:18.794Z,17.74
2022-10-06T13:52:25.523Z,17.70
2022-10-06T13:54:39.107Z,17.78
2022-10-06T13:56:51.214Z,17.81
2022-10-06T13:59:03.254Z,17.79
2022-10-06T14:01:15.411Z,17.81
2022-10-06T14:03:27.512Z,17.84
2022-10-06T14:05:41.071Z,17.82
2022-10-06T14:07:54.172Z,17.79
2022-10-06T14:10:06.260Z,17.71
2022-10-06T14:12:18.345Z,17.67
2022-10-06T14:14:30.415Z,17.57
2022-10-06T14:16:42.565Z,17.53
2022-10-06T14:21:06.765Z,17.38
2022-10-06T14:23:19.763Z,17.28
2022-10-06T14:25:33.343Z,17.30
2022-10-06T14:27:45.491Z,17.33
2022-10-06T14:29:57.883Z,17.36
2022-10-06T14:32:14.221Z,17.43
2022-10-06T14:34:34.831Z,17.41
2022-10-06T14:36:52.867Z,17.33
2022-10-06T14:39:10.951Z,17.32
2022-10-06T14:41:31.571Z,17.30
2022-10-06T14:43:49.329Z,17.25
2022-10-06T14:46:23.875Z,17.13
2022-10-06T14:48:54.371Z,16.99
2022-10-06T14:52:23.144Z,16.93
2022-10-06T14:55:52.062Z,16.83
2022-10-06T14:58:12.181Z,16.81
2022-10-06T15:00:33.046Z,16.90
2022-10-06T15:02:48.438Z,16.99
2022-10-06T15:05:04.071Z,17.07
2022-10-06T15:07:24.690Z,17.03
2022-10-06T15:10:03.351Z,16.96
2022-10-06T15:12:23.967Z,16.85
2022-10-06T15:14:44.189Z,16.80
2022-10-06T15:17:25.864Z,16.77
2022-10-06T15:19:44.093Z,16.75
2022-10-06T15:22:17.058Z,16.78
2022-10-06T15:24:39.374Z,16.74
2022-10-06T15:31:01.457Z,16.65
2022-10-06T15:33:41.984Z,16.53
2022-10-06T15:35:57.455Z,16.45
2022-10-06T15:38:22.174Z,16.48
2022-10-06T15:40:37.180Z,16.44
2022-10-06T15:42:55.427Z,16.35
2022-10-06T15:45:16.033Z,16.25
2022-10-06T15:47:34.202Z,16.12
2022-10-06T15:49:52.317Z,15.97
2022-10-06T15:52:05.870Z,15.76
2022-10-06T15:54:23.545Z,15.57
2022-10-06T15:57:45.846Z,15.41
2022-10-06T16:00:13.347Z,15.26
2022-10-06T16:02:30.136Z,15.13
2022-10-06T16:04:44.883Z,14.98
2022-10-06T16:07:05.639Z,14.71
2022-10-06T16:09:21.071Z,14.46
2022-10-06T16:11:38.658Z,14.24
2022-10-06T16:13:55.368Z,14.07
2022-10-06T16:16:52.876Z,13.87
2022-10-06T16:19:14.469Z,13.70
2022-10-06T16:21:30.970Z,13.51
2022-10-06T16:26:25.438Z,13.15
2022-10-06T16:28:41.571Z,13.03
2022-10-06T16:31:00.605Z,12.92
2022-10-06T16:33:30.813Z,12.78
2022-10-06T16:35:47.029Z,12.67
2022-10-06T16:38:07.761Z,12.56
2022-10-06T16:40:24.340Z,12.41
2022-10-06T16:43:03.737Z,12.33
2022-10-06T16:45:24.790Z,12.21
2022-10-06T16:49:00.204Z,12.08
2022-10-06T16:51:20.772Z,12.02
2022-10-06T16:55:42.123Z,11.80
2022-10-06T16:59:12.902Z,11.67
2022-10-06T17:01:27.468Z,11.59
2022-10-06T17:03:45.864Z,11.50
2022-10-06T17:06:03.922Z,11.35
2022-10-06T17:08:19.487Z,11.27
2022-10-06T17:10:37.594Z,11.19
2022-10-06T17:12:53.356Z,11.11
2022-10-06T17:15:08.803Z,11.06
2022-10-06T17:17:25.187Z,10.98
2022-10-06T17:19:42.495Z,10.91
2022-10-06T17:22:00.673Z,10.81
2022-10-06T17:24:19.462Z,10.74
2022-10-06T17:26:36.701Z,10.62
2022-10-06T17:28:52.260Z,10.51
2022-10-06T17:31:11.382Z,10.43
2022-10-06T17:33:29.443Z,10.34
2022-10-06T17:35:45.060Z,10.24
2022-10-06T17:38:03.445Z,10.17
2022-10-06T17:40:21.428Z,10.14
2022-10-06T17:42:37.242Z,10.10
2022-10-06T17:45:04.581Z,10.03
2022-10-06T17:47:17.379Z,9.99
2022-10-06T17:49:35.768Z,9.93
2022-10-06T17:51:52.181Z,9.83
2022-10-06T17:54:09.754Z,9.79
2022-10-06T17:56:25.330Z,9.78
2022-10-06T17:58:43.403Z,9.67
2022-10-06T18:00:59.873Z,9.61
2022-10-06T18:03:17.114Z,9.57
2022-10-06T18:05:33.239Z,9.48
2022-10-06T18:07:48.238Z,9.42
2022-10-06T18:10:01.326Z,9.39
2022-10-06T18:12:20.407Z,9.32
2022-10-06T18:14:38.653Z,9.28
2022-10-06T18:16:56.922Z,9.24
2022-10-06T18:19:14.653Z,9.21
2022-10-06T18:21:32.730Z,9.16
2022-10-06T18:23:48.295Z,9.09
2022-10-06T18:26:06.424Z,9.01
2022-10-06T18:28:24.517Z,8.96
2022-10-06T18:30:40.101Z,8.94
2022-10-06T18:36:17.238Z,8.78
2022-10-06T18:38:31.813Z,8.71
2022-10-06T18:40:49.904Z,8.66
2022-10-06T18:43:02.068Z,8.63
2022-10-06T18:45:17.661Z,8.55
2022-10-06T18:47:29.664Z,8.53
2022-10-06T18:49:47.756Z,8.45
2022-10-06T18:52:01.326Z,8.45
2022-10-06T18:54:16.915Z,8.42
2022-10-06T18:56:30.492Z,8.39
2022-10-06T18:58:46.091Z,8.33
2022-10-06T19:00:59.782Z,8.32
2022-10-06T19:03:17.774Z,8.20
2022-10-06T19:05:36.733Z,8.17
2022-10-06T19:07:47.945Z,8.11
2022-10-06T19:10:01.534Z,8.08
2022-10-06T19:12:14.613Z,8.04
2022-10-06T19:14:32.700Z,8.02
2022-10-06T19:16:48.385Z,7.97
2022-10-06T19:19:01.364Z,7.85
2022-10-06T19:21:19.832Z,7.90
2022-10-06T19:23:31.533Z,7.81
2022-10-06T19:25:49.620Z,7.77
2022-10-06T19:28:05.253Z,7.72
2022-10-06T19:30:23.362Z,7.63
2022-10-06T19:32:37.874Z,7.62
2022-10-06T19:34:53.464Z,7.60
2022-10-06T19:37:09.030Z,7.60
2022-10-06T19:39:27.141Z,7.53
2022-10-06T19:41:45.206Z,7.45
2022-10-06T19:44:03.288Z,7.40
2022-10-06T19:46:18.930Z,7.38
2022-10-06T19:48:34.453Z,7.34
2022-10-06T19:50:49.053Z,7.31
2022-10-06T19:53:09.818Z,7.29
2022-10-06T19:55:25.220Z,7.24
2022-10-06T19:57:40.754Z,7.24
2022-10-06T19:59:55.369Z,7.20
2022-10-06T20:02:11.038Z,7.17
2022-10-06T20:04:26.628Z,7.16
2022-10-06T20:06:44.628Z,7.09
2022-10-06T20:09:00.222Z,7.05
2022-10-06T20:11:15.796Z,7.04
2022-10-06T20:13:33.978Z,7.02
2022-10-06T20:15:49.489Z,6.99
2022-10-06T20:18:02.567Z,6.91
2022-10-06T20:20:20.711Z,6.90
2022-10-06T20:22:36.348Z,6.90
2022-10-06T20:24:49.334Z,6.83
2022-10-06T20:27:04.927Z,6.79
2022-10-06T20:29:20.501Z,6.77
2022-10-06T20:31:38.594Z,6.76
2022-10-06T20:33:56.683Z,6.72
2022-10-06T20:36:09.796Z,6.72
2022-10-06T20:38:25.330Z,6.68
2022-10-06T20:40:38.928Z,6.61
2022-10-06T20:42:52.030Z,6.59
2022-10-06T20:45:07.597Z,6.58
2022-10-06T20:47:25.748Z,6.56
2022-10-06T20:49:41.254Z,6.48
2022-10-06T20:52:01.871Z,6.53
2022-10-06T20:54:20.004Z,6.54
2022-10-06T20:56:38.449Z,6.56
2022-10-06T20:58:56.447Z,6.48
2022-10-06T21:01:15.122Z,6.46
2022-10-06T21:03:32.639Z,6.43
2022-10-06T21:05:53.024Z,6.38
2022-10-06T21:08:11.222Z,6.35
2022-10-06T21:10:27.874Z,6.33
2022-10-06T21:12:44.215Z,6.32
2022-10-06T21:15:01.497Z,6.32
2022-10-06T21:17:19.635Z,6.29
2022-10-06T21:19:37.513Z,6.35
2022-10-06T21:21:53.448Z,6.36
2022-10-06T21:24:11.248Z,6.30
2022-10-06T21:26:26.805Z,6.26
2022-10-06T21:28:45.061Z,6.14
2022-10-06T21:31:03.017Z,6.07
2022-10-06T21:33:24.081Z,6.09
2022-10-06T21:35:42.191Z,6.06
2022-10-06T21:37:56.753Z,6.04
2022-10-06T21:40:14.948Z,6.04
2022-10-06T21:42:30.594Z,6.01
2022-10-06T21:44:48.509Z,6.00
2022-10-06T21:47:06.801Z,5.95
2022-10-06T21:49:27.356Z,5.93
2022-10-06T21:51:48.690Z,5.91
2022-10-06T21:54:06.379Z,5.93
2022-10-06T21:56:24.650Z,5.91
2022-10-06T21:58:45.299Z,5.86
2022-10-06T22:01:03.169Z,5.78
2022-10-06T22:03:21.272Z,5.75
2022-10-06T22:05:39.285Z,5.77
2022-10-06T22:07:57.385Z,5.77
2022-10-06T22:10:15.470Z,5.68
2022-10-06T22:12:33.729Z,5.74
2022-10-06T22:14:51.642Z,5.78
2022-10-06T22:17:09.799Z,5.75
2022-10-06T22:19:27.858Z,5.81
2022-10-06T22:21:46.036Z,5.73
2022-10-06T22:24:03.989Z,5.64
2022-10-06T22:26:22.238Z,5.67
2022-10-06T22:28:40.268Z,5.70
2022-10-06T22:30:58.461Z,5.68
2022-10-06T22:33:12.818Z,5.67
2022-10-06T22:35:31.120Z,5.57
2022-10-06T22:37:48.984Z,5.56
2022-10-06T22:40:07.502Z,5.63
2022-10-06T22:42:24.289Z,5.56
2022-10-06T22:44:42.287Z,5.52
2022-10-06T22:46:56.963Z,5.46
2022-10-06T22:49:14.962Z,5.40
2022-10-06T22:51:33.039Z,5.38
2022-10-06T22:53:56.569Z,5.35
2022-10-06T22:56:07.709Z,5.37
2022-10-06T22:58:23.277Z,5.35
2022-10-06T23:00:43.949Z,5.34
2022-10-06T23:02:59.533Z,5.31
2022-10-06T23:05:15.109Z,5.31
2022-10-06T23:07:30.835Z,5.30
2022-10-06T23:09:48.721Z,5.27
2022-10-06T23:12:07.047Z,5.22
2022-10-06T23:14:24.857Z,5.19
2022-10-06T23:16:43.142Z,5.12
2022-10-06T23:19:01.113Z,5.10
2022-10-06T23:21:19.349Z,5.10
2022-10-06T23:23:37.422Z,5.07
2022-10-06T23:25:51.940Z,4.98
2022-10-06T23:28:07.484Z,4.98
2022-10-06T23:30:25.587Z,4.99
2022-10-06T23:32:41.083Z,5.01
2022-10-06T23:34:59.473Z,4.99
2022-10-06T23:37:17.432Z,4.99
2022-10-06T23:39:35.469Z,4.96
2022-10-06T23:41:53.424Z,4.94
2022-10-06T23:44:11.844Z,4.96
2022-10-06T23:46:28.286Z,4.92
2022-10-06T23:48:46.284Z,4.92
2022-10-06T23:51:04.413Z,4.83
2022-10-06T23:53:22.389Z,4.88
2022-10-06T23:55:38.021Z,4.86
2022-10-06T23:57:56.135Z,4.80
